createdAt,value
2023-02-13T00:00:35.254Z,103669.16
2023-02-13T00:03:02.409Z,103662.03
2023-02-13T00:05:29.613Z,103661.16
2023-02-13T00:07:57.349Z,103651.06
2023-02-13T00:10:24.402Z,103655.34
2023-02-13T00:12:53.903Z,103651.91
2023-02-13T00:15:20.921Z,103652.78
2023-02-13T00:17:47.921Z,103658.19
2023-02-13T00:20:14.759Z,103655.59
2023-02-13T00:22:41.745Z,103656.47
2023-02-13T00:25:09.294Z,103659.00
2023-02-13T00:27:36.399Z,103653.91
2023-02-13T00:30:05.019Z,103641.63
2023-02-13T00:32:32.110Z,103640.75
2023-02-13T00:34:59.148Z,103641.06
2023-02-13T00:37:26.726Z,103641.06
2023-02-13T00:39:54.140Z,103642.63
2023-02-13T00:42:24.290Z,103650.19
2023-02-13T00:44:51.262Z,103651.91
2023-02-13T00:47:18.489Z,103648.91
2023-02-13T00:49:45.910Z,103663.19
2023-02-13T00:52:13.616Z,103654.91
2023-02-13T00:54:40.786Z,103644.31
2023-02-13T00:57:07.575Z,103653.31
2023-02-13T00:59:34.600Z,103649.31
2023-02-13T01:02:01.581Z,103650.88
2023-02-13T01:04:28.542Z,103649.19
2023-02-13T01:06:55.523Z,103651.91
2023-02-13T01:09:22.520Z,103649.88
2023-02-13T01:11:49.431Z,103649.63
2023-02-13T01:14:16.576Z,103653.59
2023-02-13T01:16:43.595Z,103649.19
2023-02-13T01:19:10.393Z,103641.06
2023-02-13T01:21:37.585Z,103644.75
2023-02-13T01:24:05.603Z,103638.34
2023-02-13T01:26:32.630Z,103646.75
2023-02-13T01:28:59.613Z,103637.91
2023-02-13T01:31:27.014Z,103636.34
2023-02-13T01:33:57.627Z,103645.31
2023-02-13T01:36:25.521Z,103628.19
2023-02-13T01:38:57.666Z,103629.88
2023-02-13T01:41:26.658Z,103632.59
2023-02-13T01:43:59.304Z,103629.03
2023-02-13T01:46:39.028Z,103624.75
2023-02-13T01:49:15.105Z,103615.63
2023-02-13T01:51:43.730Z,103620.19
2023-02-13T01:54:18.673Z,103617.63
2023-02-13T01:56:58.663Z,103617.22
2023-02-13T01:59:29.973Z,103613.50
2023-02-13T02:01:58.466Z,103605.94
2023-02-13T02:04:44.615Z,103606.78
2023-02-13T02:07:18.198Z,103600.78
2023-02-13T02:09:45.901Z,103596.50
2023-02-13T02:12:26.609Z,103596.78
2023-02-13T02:14:55.957Z,103599.91
2023-02-13T02:17:24.832Z,103596.94
2023-02-13T02:20:18.323Z,103592.50
2023-02-13T02:22:57.657Z,103592.06
2023-02-13T02:25:53.848Z,103579.69
2023-02-13T02:28:29.357Z,103594.47
2023-02-13T02:31:17.943Z,103590.06
2023-02-13T02:33:49.871Z,103592.47
2023-02-13T02:36:46.935Z,103588.91
2023-02-13T02:39:30.494Z,103590.88
2023-02-13T02:42:09.658Z,103594.31
2023-02-13T02:44:54.834Z,103600.47
2023-02-13T02:47:50.839Z,103598.16
2023-02-13T02:50:45.345Z,103590.88
2023-02-13T02:53:24.347Z,103597.03
2023-02-13T02:56:18.380Z,103592.16
2023-02-13T02:59:16.000Z,103591.03
2023-02-13T03:02:03.454Z,103596.59
2023-02-13T03:04:58.882Z,103595.16
2023-02-13T03:07:28.404Z,103595.16
2023-02-13T03:10:18.577Z,103589.31
2023-02-13T03:13:15.326Z,103584.75
2023-02-13T03:16:04.036Z,103585.75
2023-02-13T03:18:54.282Z,103585.91
2023-02-13T03:22:11.657Z,103588.47
2023-02-13T03:25:19.171Z,103597.13
2023-02-13T03:28:56.114Z,103602.81
2023-02-13T03:31:44.660Z,103591.00
2023-02-13T03:34:23.243Z,103595.25
2023-02-13T03:37:11.336Z,103597.81
2023-02-13T03:39:54.755Z,103602.69
2023-02-13T03:42:32.158Z,103607.38
2023-02-13T03:45:27.895Z,103601.38
2023-02-13T03:47:58.379Z,103597.75
2023-02-13T03:50:28.355Z,103601.66
2023-02-13T03:53:08.436Z,103605.75
2023-02-13T03:55:59.735Z,103611.19
2023-02-13T03:58:53.276Z,103606.75
2023-02-13T04:01:24.234Z,103610.16
2023-02-13T04:03:59.671Z,103607.19
2023-02-13T04:06:32.728Z,103614.19
2023-02-13T04:08:59.678Z,103609.63
2023-02-13T04:11:37.759Z,103604.63
2023-02-13T04:14:28.556Z,103611.03
2023-02-13T04:17:05.476Z,103601.19
2023-02-13T04:19:34.090Z,103609.19
2023-02-13T04:22:02.950Z,103600.47
2023-02-13T04:24:30.207Z,103601.59
2023-02-13T04:26:57.878Z,103598.63
2023-02-13T04:29:26.923Z,103599.44
2023-02-13T04:31:53.907Z,103593.31
2023-02-13T04:34:21.045Z,103601.03
2023-02-13T04:36:47.990Z,103601.13
2023-02-13T04:39:14.960Z,103606.56
2023-02-13T04:41:41.962Z,103601.41
2023-02-13T04:44:09.138Z,103590.00
2023-02-13T04:46:36.006Z,103596.16
2023-02-13T04:49:02.943Z,103593.44
2023-02-13T04:51:30.142Z,103584.28
2023-02-13T04:53:56.937Z,103593.97
2023-02-13T04:56:24.103Z,103584.13
2023-02-13T04:58:50.983Z,103588.56
2023-02-13T05:01:18.701Z,103585.72
2023-02-13T05:03:45.793Z,103590.19
2023-02-13T05:06:15.168Z,103595.72
2023-02-13T05:08:41.935Z,103575.09
2023-02-13T05:11:09.071Z,103582.34
2023-02-13T05:13:36.054Z,103583.00
2023-02-13T05:16:03.224Z,103586.00
2023-02-13T05:18:33.323Z,103579.66
2023-02-13T05:21:18.476Z,103579.47
2023-02-13T05:23:45.406Z,103586.22
2023-02-13T05:26:15.190Z,103590.81
2023-02-13T05:29:00.908Z,103586.84
2023-02-13T05:31:27.839Z,103585.13
2023-02-13T05:33:54.851Z,103587.28
2023-02-13T05:36:21.898Z,103590.41
2023-02-13T05:38:48.703Z,103599.91
2023-02-13T05:41:15.717Z,103600.06
2023-02-13T05:43:42.894Z,103616.16
2023-02-13T05:46:10.713Z,103604.94
2023-02-13T05:48:37.746Z,103603.75
2023-02-13T05:51:05.170Z,103604.47
2023-02-13T05:53:35.486Z,103602.16
2023-02-13T05:56:03.903Z,103605.59
2023-02-13T05:58:30.988Z,103606.44
2023-02-13T06:00:59.387Z,103604.34
2023-02-13T06:03:28.029Z,103601.09
2023-02-13T06:05:55.810Z,103609.22
2023-02-13T06:08:23.568Z,103618.72
2023-02-13T06:10:51.269Z,103613.31
2023-02-13T06:13:18.716Z,103620.72
2023-02-13T06:15:46.146Z,103627.50
2023-02-13T06:18:13.211Z,103625.41
2023-02-13T06:20:40.018Z,103625.72
2023-02-13T06:23:07.144Z,103626.59
2023-02-13T06:25:36.535Z,103626.72
2023-02-13T06:28:05.070Z,103627.56
2023-02-13T06:30:32.936Z,103629.28
2023-02-13T06:33:00.351Z,103639.97
2023-02-13T06:35:28.156Z,103633.59
2023-02-13T06:37:55.092Z,103638.00
2023-02-13T06:40:22.159Z,103625.84
2023-02-13T06:42:49.241Z,103636.69
2023-02-13T06:45:16.533Z,103640.66
2023-02-13T06:47:45.282Z,103637.09
2023-02-13T06:50:14.044Z,103644.34
2023-02-13T06:52:46.558Z,103647.78
2023-02-13T06:55:14.191Z,103642.84
2023-02-13T06:57:42.322Z,103643.50
2023-02-13T07:00:13.394Z,103643.22
2023-02-13T07:02:41.993Z,103646.44
2023-02-13T07:05:09.576Z,103654.75
2023-02-13T07:07:42.422Z,103658.53
2023-02-13T07:10:12.920Z,103659.41
2023-02-13T07:12:40.050Z,103666.59
2023-02-13T07:15:08.397Z,103668.56
2023-02-13T07:17:35.343Z,103672.00
2023-02-13T07:20:06.297Z,103672.00
2023-02-13T07:22:33.630Z,103672.00
2023-02-13T07:25:01.612Z,103675.44
2023-02-13T07:27:31.681Z,103671.47
2023-02-13T07:29:58.721Z,103670.94
2023-02-13T07:32:31.134Z,103669.69
2023-02-13T07:35:02.083Z,103681.50
2023-02-13T07:37:31.277Z,103676.94
2023-02-13T07:39:58.504Z,103674.81
2023-02-13T07:42:25.451Z,103674.44
2023-02-13T07:44:52.670Z,103674.69
2023-02-13T07:47:20.333Z,103678.97
2023-02-13T07:49:47.440Z,103679.84
2023-02-13T07:52:17.652Z,103671.53
2023-02-13T07:54:47.973Z,103668.72
2023-02-13T07:57:16.369Z,103677.78
2023-02-13T07:59:43.541Z,103678.38
2023-02-13T08:02:13.651Z,103678.19
2023-02-13T08:04:41.415Z,103680.63
2023-02-13T08:07:08.287Z,103675.94
2023-02-13T08:09:54.001Z,103683.94
2023-02-13T08:12:23.740Z,103680.22
2023-02-13T08:14:50.573Z,103678.81
2023-02-13T08:17:17.397Z,103679.13
2023-02-13T08:19:44.348Z,103683.53
2023-02-13T08:22:11.510Z,103682.13
2023-02-13T08:24:38.388Z,103682.44
2023-02-13T08:27:05.223Z,103690.31
2023-02-13T08:29:32.243Z,103687.16
2023-02-13T08:31:59.272Z,103684.31
2023-02-13T08:34:26.329Z,103680.09
2023-02-13T08:36:53.096Z,103682.66
2023-02-13T08:39:20.167Z,103679.50
2023-02-13T08:41:47.045Z,103686.78
2023-02-13T08:44:14.328Z,103694.47
2023-02-13T08:46:41.330Z,103685.09
2023-02-13T08:49:09.994Z,103684.97
2023-02-13T08:51:37.025Z,103690.91
2023-02-13T08:54:03.935Z,103690.41
2023-02-13T08:56:30.887Z,103677.84
2023-02-13T08:58:57.897Z,103681.13
2023-02-13T09:01:25.015Z,103678.56
2023-02-13T09:03:52.215Z,103677.22
2023-02-13T09:06:19.000Z,103686.69
2023-02-13T09:08:46.065Z,103688.13
2023-02-13T09:11:14.013Z,103686.56
2023-02-13T09:13:41.072Z,103687.91
2023-02-13T09:16:07.982Z,103697.75
2023-02-13T09:18:35.669Z,103687.38
2023-02-13T09:21:06.631Z,103690.50
2023-02-13T09:23:36.114Z,103685.97
2023-02-13T09:26:05.325Z,103690.09
2023-02-13T09:28:34.901Z,103695.97
2023-02-13T09:31:15.591Z,103694.97
2023-02-13T09:33:43.497Z,103699.09
2023-02-13T09:36:14.844Z,103695.97
2023-02-13T09:38:45.441Z,103705.13
2023-02-13T09:41:20.074Z,103699.41
2023-02-13T09:43:55.410Z,103695.41
2023-02-13T09:46:27.483Z,103702.25
2023-02-13T09:48:57.856Z,103703.13
2023-02-13T09:51:26.439Z,103699.69
2023-02-13T09:54:16.941Z,103698.28
2023-02-13T09:56:50.370Z,103694.88
2023-02-13T09:59:46.234Z,103699.13
2023-02-13T10:02:52.016Z,103700.84
2023-02-13T10:05:58.069Z,103710.28
2023-02-13T10:08:55.284Z,103703.25
2023-02-13T10:11:43.769Z,103699.41
2023-02-13T10:14:43.462Z,103692.41
2023-02-13T10:17:35.731Z,103689.56
2023-02-13T10:20:27.410Z,103689.09
2023-02-13T10:23:03.480Z,103699.66
2023-02-13T10:25:45.193Z,103694.50
2023-02-13T10:28:22.057Z,103701.94
2023-02-13T10:30:57.041Z,103694.63
2023-02-13T10:33:35.118Z,103701.63
2023-02-13T10:36:07.227Z,103701.03
2023-02-13T10:38:38.713Z,103702.16
2023-02-13T10:41:33.124Z,103691.03
2023-02-13T10:44:29.946Z,103703.94
2023-02-13T10:47:23.939Z,103700.38
2023-02-13T10:50:22.420Z,103690.22
2023-02-13T10:52:57.665Z,103702.50
2023-02-13T10:55:46.476Z,103709.09
2023-02-13T10:58:32.053Z,103707.47
2023-02-13T11:01:07.818Z,103699.06
2023-02-13T11:03:34.668Z,103700.38
2023-02-13T11:06:07.877Z,103693.22
2023-02-13T11:08:47.856Z,103683.03
2023-02-13T11:11:34.315Z,103678.03
2023-02-13T11:14:22.681Z,103676.19
2023-02-13T11:17:02.462Z,103686.31
2023-02-13T11:19:39.428Z,103692.75
2023-02-13T11:22:13.778Z,103697.34
2023-02-13T11:24:43.136Z,103697.34
2023-02-13T11:27:14.107Z,103694.47
2023-02-13T11:29:57.113Z,103683.50
2023-02-13T11:32:26.659Z,103691.19
2023-02-13T11:34:55.142Z,103686.16
2023-02-13T11:37:25.280Z,103685.16
2023-02-13T11:39:57.837Z,103682.44
2023-02-13T11:42:36.253Z,103680.00
2023-02-13T11:45:07.889Z,103679.38
2023-02-13T11:47:41.151Z,103674.34
2023-02-13T11:50:36.371Z,103670.50
2023-02-13T11:53:07.826Z,103664.91
2023-02-13T11:55:38.405Z,103676.91
2023-02-13T11:58:11.139Z,103677.75
2023-02-13T12:00:41.833Z,103683.94
2023-02-13T12:03:29.255Z,103674.59
2023-02-13T12:06:11.264Z,103675.09
2023-02-13T12:08:40.458Z,103675.75
2023-02-13T12:11:25.656Z,103671.91
2023-02-13T12:13:53.235Z,103666.91
2023-02-13T12:16:38.794Z,103662.03
2023-02-13T12:19:11.343Z,103663.16
2023-02-13T12:22:19.690Z,103666.75
2023-02-13T12:25:02.919Z,103653.34
2023-02-13T12:27:59.406Z,103658.78
2023-02-13T12:30:41.290Z,103655.91
2023-02-13T12:33:26.070Z,103660.59
2023-02-13T12:36:11.058Z,103661.41
2023-02-13T12:38:37.846Z,103656.53
2023-02-13T12:41:27.401Z,103658.78
2023-02-13T12:44:07.732Z,103660.47
2023-02-13T12:47:03.855Z,103660.94
2023-02-13T12:49:52.917Z,103662.06
2023-02-13T12:52:38.419Z,103663.16
2023-02-13T12:55:23.064Z,103656.34
2023-02-13T12:58:11.660Z,103654.50
2023-02-13T13:01:27.178Z,103648.00
2023-02-13T13:04:37.412Z,103645.13
2023-02-13T13:07:45.996Z,103645.91
2023-02-13T13:10:38.465Z,103646.22
2023-02-13T13:13:25.524Z,103641.09
2023-02-13T13:16:00.013Z,103640.59
2023-02-13T13:18:32.597Z,103642.31
2023-02-13T13:21:14.113Z,103635.44
2023-02-13T13:23:50.733Z,103636.31
2023-02-13T13:26:32.176Z,103637.56
2023-02-13T13:29:01.722Z,103635.41
2023-02-13T13:31:29.268Z,103632.03
2023-02-13T13:34:02.317Z,103637.47
2023-02-13T13:36:46.671Z,103634.84
2023-02-13T13:39:41.496Z,103633.81
2023-02-13T13:42:34.478Z,103639.28
2023-02-13T13:45:31.555Z,103633.09
2023-02-13T13:48:18.771Z,103622.97
2023-02-13T13:50:47.075Z,103628.56
2023-02-13T13:53:26.037Z,103633.25
2023-02-13T13:55:58.755Z,103632.25
2023-02-13T13:58:44.002Z,103622.25
2023-02-13T14:01:23.432Z,103625.84
2023-02-13T14:04:20.414Z,103623.63
2023-02-13T14:07:15.653Z,103630.34
2023-02-13T14:09:44.148Z,103639.56
2023-02-13T14:12:28.680Z,103629.28
2023-02-13T14:14:57.428Z,103628.75
2023-02-13T14:17:44.522Z,103634.47
2023-02-13T14:20:33.555Z,103624.16
2023-02-13T14:24:00.821Z,103629.50
2023-02-13T14:26:32.466Z,103626.69
2023-02-13T14:29:17.349Z,103633.41
2023-02-13T14:31:57.445Z,103633.44
2023-02-13T14:34:34.091Z,103631.72
2023-02-13T14:37:21.185Z,103633.53
2023-02-13T14:40:28.053Z,103627.84
2023-02-13T14:42:58.844Z,103632.28
2023-02-13T14:45:33.852Z,103628.94
2023-02-13T14:48:07.793Z,103625.38
2023-02-13T14:50:53.331Z,103630.81
2023-02-13T14:53:41.927Z,103621.38
2023-02-13T14:56:15.072Z,103623.50
2023-02-13T14:59:11.291Z,103619.69
2023-02-13T15:01:47.298Z,103627.69
2023-02-13T15:04:39.409Z,103624.84
2023-02-13T15:07:13.658Z,103628.00
2023-02-13T15:09:45.568Z,103620.16
2023-02-13T15:12:34.971Z,103614.75
2023-02-13T15:15:17.764Z,103615.19
2023-02-13T15:17:45.112Z,103608.47
2023-02-13T15:20:20.722Z,103610.88
2023-02-13T15:22:48.270Z,103600.34
2023-02-13T15:25:32.586Z,103604.88
2023-02-13T15:28:00.408Z,103602.59
2023-02-13T15:30:31.161Z,103607.47
2023-02-13T15:33:03.842Z,103597.84
2023-02-13T15:35:37.760Z,103605.00
2023-02-13T15:38:32.620Z,103609.03
2023-02-13T15:41:10.726Z,103607.19
2023-02-13T15:43:50.566Z,103604.03
2023-02-13T15:46:28.563Z,103597.88
2023-02-13T15:48:59.261Z,103599.19
2023-02-13T15:51:31.108Z,103606.16
2023-02-13T15:54:04.598Z,103601.75
2023-02-13T15:56:32.009Z,103600.31
2023-02-13T15:59:01.133Z,103595.75
2023-02-13T16:01:29.074Z,103592.91
2023-02-13T16:04:09.166Z,103588.63
2023-02-13T16:06:36.519Z,103591.03
2023-02-13T16:09:04.175Z,103588.16
2023-02-13T16:11:44.239Z,103588.56
2023-02-13T16:14:28.306Z,103581.69
2023-02-13T16:16:59.294Z,103590.00
2023-02-13T16:19:40.018Z,103587.41
2023-02-13T16:22:15.686Z,103586.25
2023-02-13T16:24:51.205Z,103574.84
2023-02-13T16:27:21.601Z,103588.94
2023-02-13T16:29:58.026Z,103577.84
2023-02-13T16:32:33.404Z,103578.84
2023-02-13T16:35:30.827Z,103570.97
2023-02-13T16:38:02.776Z,103583.69
2023-02-13T16:40:33.927Z,103571.66
2023-02-13T16:43:38.014Z,103575.50
2023-02-13T16:46:19.189Z,103571.66
2023-02-13T16:49:08.044Z,103566.09
2023-02-13T16:51:40.035Z,103570.94
2023-02-13T16:54:18.596Z,103569.78
2023-02-13T16:56:51.296Z,103573.34
2023-02-13T16:59:29.436Z,103577.63
2023-02-13T17:02:15.213Z,103586.00
2023-02-13T17:04:50.788Z,103580.44
2023-02-13T17:07:31.889Z,103580.97
2023-02-13T17:10:07.852Z,103579.59
2023-02-13T17:12:41.682Z,103572.84
2023-02-13T17:15:13.913Z,103574.13
2023-02-13T17:17:41.360Z,103579.38
2023-02-13T17:20:15.392Z,103574.06
2023-02-13T17:22:46.070Z,103582.63
2023-02-13T17:25:27.195Z,103580.34
2023-02-13T17:27:57.799Z,103583.06
2023-02-13T17:30:28.360Z,103581.66
2023-02-13T17:33:03.735Z,103584.66
2023-02-13T17:35:31.501Z,103587.22
2023-02-13T17:37:59.072Z,103584.06
2023-02-13T17:40:29.694Z,103591.72
2023-02-13T17:42:57.849Z,103580.34
2023-02-13T17:45:27.475Z,103585.50
2023-02-13T17:47:55.185Z,103581.75
2023-02-13T17:50:22.649Z,103594.44
2023-02-13T17:52:49.998Z,103590.59
2023-02-13T17:55:22.399Z,103596.00
2023-02-13T17:57:49.525Z,103596.16
2023-02-13T18:00:17.194Z,103593.31
2023-02-13T18:02:44.516Z,103600.88
2023-02-13T18:05:11.570Z,103605.16
2023-02-13T18:07:41.744Z,103602.09
2023-02-13T18:10:17.171Z,103606.53
2023-02-13T18:12:45.417Z,103605.25
2023-02-13T18:15:13.044Z,103604.13
2023-02-13T18:17:41.164Z,103613.09
2023-02-13T18:20:11.178Z,103610.97
2023-02-13T18:22:38.113Z,103612.84
2023-02-13T18:25:06.081Z,103604.53
2023-02-13T18:27:33.042Z,103600.22
2023-02-13T18:30:00.094Z,103600.56
2023-02-13T18:32:27.286Z,103591.44
2023-02-13T18:34:54.580Z,103594.44
2023-02-13T18:37:21.698Z,103584.88
2023-02-13T18:39:48.696Z,103587.66
2023-02-13T18:42:15.643Z,103593.88
2023-02-13T18:44:42.595Z,103596.75
2023-02-13T18:47:09.449Z,103593.38
2023-02-13T18:49:37.028Z,103595.88
2023-02-13T18:52:04.685Z,103588.69
2023-02-13T18:54:32.027Z,103588.72
2023-02-13T18:56:58.920Z,103585.00
2023-02-13T18:59:27.275Z,103589.44
2023-02-13T19:01:54.156Z,103587.19
2023-02-13T19:04:21.441Z,103584.50
2023-02-13T19:06:48.756Z,103574.19
2023-02-13T19:09:15.665Z,103579.81
2023-02-13T19:11:44.620Z,103580.50
2023-02-13T19:14:13.933Z,103579.00
2023-02-13T19:16:41.673Z,103583.97
2023-02-13T19:19:09.110Z,103576.13
2023-02-13T19:21:38.436Z,103574.59
2023-02-13T19:24:08.978Z,103568.16
2023-02-13T19:26:36.696Z,103568.53
2023-02-13T19:29:04.462Z,103570.56
2023-02-13T19:31:33.310Z,103570.91
2023-02-13T19:34:05.837Z,103567.69
2023-02-13T19:36:33.023Z,103566.44
2023-02-13T19:39:05.654Z,103575.00
2023-02-13T19:41:33.253Z,103576.66
2023-02-13T19:44:01.196Z,103573.63
2023-02-13T19:46:31.122Z,103576.03
2023-02-13T19:49:01.685Z,103573.16
2023-02-13T19:51:30.756Z,103568.06
2023-02-13T19:54:00.498Z,103577.59
2023-02-13T19:56:28.865Z,103575.34
2023-02-13T19:58:56.173Z,103572.13
2023-02-13T20:01:25.467Z,103574.94
2023-02-13T20:03:55.717Z,103580.47
2023-02-13T20:06:35.997Z,103579.22
2023-02-13T20:09:07.540Z,103582.94
2023-02-13T20:11:34.645Z,103583.03
2023-02-13T20:14:01.453Z,103575.81
2023-02-13T20:16:33.256Z,103573.34
2023-02-13T20:19:03.498Z,103577.53
2023-02-13T20:21:34.178Z,103575.66
2023-02-13T20:24:01.772Z,103575.81
2023-02-13T20:26:29.574Z,103576.47
2023-02-13T20:28:59.069Z,103575.66
2023-02-13T20:31:27.480Z,103586.69
2023-02-13T20:33:54.441Z,103582.47
2023-02-13T20:36:30.746Z,103580.75
2023-02-13T20:39:00.162Z,103580.88
2023-02-13T20:41:29.731Z,103586.16
2023-02-13T20:44:05.627Z,103589.47
2023-02-13T20:46:37.397Z,103597.03
2023-02-13T20:49:05.465Z,103593.53
2023-02-13T20:51:32.412Z,103593.72
2023-02-13T20:54:00.533Z,103598.47
2023-02-13T20:56:28.612Z,103596.50
2023-02-13T20:58:57.726Z,103594.69
2023-02-13T21:01:37.563Z,103598.41
2023-02-13T21:04:04.548Z,103595.16
2023-02-13T21:06:35.173Z,103595.44
2023-02-13T21:09:02.938Z,103601.84
2023-02-13T21:11:30.234Z,103596.38
2023-02-13T21:13:58.224Z,103600.13
2023-02-13T21:16:27.591Z,103600.06
2023-02-13T21:18:57.066Z,103600.00
2023-02-13T21:21:26.633Z,103598.66
2023-02-13T21:23:57.748Z,103594.59
2023-02-13T21:26:25.332Z,103587.72
2023-02-13T21:28:52.817Z,103589.28
2023-02-13T21:31:28.030Z,103596.44
2023-02-13T21:34:03.287Z,103587.84
2023-02-13T21:36:31.592Z,103593.00
2023-02-13T21:38:59.017Z,103592.09
2023-02-13T21:41:26.089Z,103594.66
2023-02-13T21:43:53.319Z,103598.28
2023-02-13T21:46:28.937Z,103593.75
2023-02-13T21:49:02.290Z,103590.41
2023-02-13T21:51:31.671Z,103597.31
2023-02-13T21:54:02.167Z,103598.34
2023-02-13T21:56:35.571Z,103602.91
2023-02-13T21:59:05.713Z,103608.13
2023-02-13T22:01:35.887Z,103609.06
2023-02-13T22:04:08.272Z,103613.06
2023-02-13T22:06:38.572Z,103602.38
2023-02-13T22:09:11.962Z,103614.94
2023-02-13T22:11:39.461Z,103602.63
2023-02-13T22:14:08.172Z,103604.34
2023-02-13T22:16:37.594Z,103607.31
2023-02-13T22:19:05.936Z,103614.19
2023-02-13T22:21:34.498Z,103611.63
2023-02-13T22:24:02.137Z,103609.75
2023-02-13T22:26:34.749Z,103608.69
2023-02-13T22:29:05.282Z,103611.03
2023-02-13T22:31:32.550Z,103609.38
2023-02-13T22:34:03.754Z,103609.97
2023-02-13T22:36:35.527Z,103611.88
2023-02-13T22:39:02.379Z,103611.34
2023-02-13T22:41:29.852Z,103612.97
2023-02-13T22:43:57.235Z,103612.97
2023-02-13T22:46:29.708Z,103614.47
2023-02-13T22:48:57.116Z,103613.59
2023-02-13T22:51:27.583Z,103604.50
2023-02-13T22:53:56.015Z,103608.44
2023-02-13T22:56:24.242Z,103612.13
2023-02-13T22:58:51.245Z,103611.84
2023-02-13T23:01:20.388Z,103618.66
2023-02-13T23:03:47.935Z,103618.94
2023-02-13T23:06:15.753Z,103622.34
2023-02-13T23:08:43.551Z,103617.22
2023-02-13T23:11:34.203Z,103613.84
2023-02-13T23:14:01.995Z,103616.94
2023-02-13T23:16:49.215Z,103611.84
2023-02-13T23:19:16.266Z,103620.56
2023-02-13T23:21:43.289Z,103614.69
2023-02-13T23:24:10.979Z,103618.78
2023-02-13T23:26:37.903Z,103618.66
2023-02-13T23:29:05.050Z,103614.50
2023-02-13T23:31:32.159Z,103625.06
2023-02-13T23:34:03.123Z,103616.94
2023-02-13T23:36:30.035Z,103624.13
2023-02-13T23:38:56.982Z,103619.44
2023-02-13T23:41:23.935Z,103613.63
2023-02-13T23:43:50.987Z,103627.03
2023-02-13T23:46:17.851Z,103608.97
2023-02-13T23:48:46.163Z,103615.97
2023-02-13T23:51:13.142Z,103620.69
2023-02-13T23:53:40.239Z,103623.13
2023-02-13T23:56:07.683Z,103608.78
2023-02-13T23:58:35.880Z,103613.91
